createdAt,value
2022-10-19T00:00:01.760Z,65.82
2022-10-19T00:02:29.416Z,65.45
2022-10-19T00:04:57.117Z,65.69
2022-10-19T00:07:24.746Z,65.75
2022-10-19T00:09:52.728Z,65.89
2022-10-19T00:12:20.373Z,65.87
2022-10-19T00:14:49.325Z,65.76
2022-10-19T00:17:17.425Z,65.62
2022-10-19T00:19:45.039Z,66.03
2022-10-19T00:22:14.062Z,65.85
2022-10-19T00:24:41.976Z,66.39
2022-10-19T00:27:09.604Z,65.88
2022-10-19T00:29:39.747Z,66.61
2022-10-19T00:32:08.702Z,66.11
2022-10-19T00:34:36.317Z,66.47
2022-10-19T00:37:04.101Z,66.87
2022-10-19T00:39:31.725Z,66.30
2022-10-19T00:41:59.394Z,66.26
2022-10-19T00:44:59.614Z,66.61
2022-10-19T00:47:32.762Z,66.22
2022-10-19T00:50:01.065Z,66.12
2022-10-19T00:52:29.090Z,66.64
2022-10-19T00:54:58.768Z,66.27
2022-10-19T00:57:30.574Z,66.06
2022-10-19T00:59:59.668Z,66.57
2022-10-19T01:02:28.685Z,66.39
2022-10-19T01:04:56.777Z,66.57
2022-10-19T01:07:26.243Z,66.55
2022-10-19T01:09:54.362Z,66.57
2022-10-19T01:12:36.323Z,66.96
2022-10-19T01:15:20.345Z,67.28
2022-10-19T01:17:57.391Z,67.14
2022-10-19T01:20:43.094Z,67.21
2022-10-19T01:23:29.733Z,67.58
2022-10-19T01:26:11.325Z,67.57
2022-10-19T01:28:48.666Z,67.13
2022-10-19T01:31:25.010Z,67.21
2022-10-19T01:33:59.980Z,67.17
2022-10-19T01:36:29.902Z,68.02
2022-10-19T01:39:04.041Z,66.79
2022-10-19T01:41:39.908Z,67.48
2022-10-19T01:44:14.938Z,67.05
2022-10-19T01:46:48.021Z,67.52
2022-10-19T01:49:23.705Z,66.78
2022-10-19T01:51:56.454Z,68.08
2022-10-19T01:54:27.563Z,66.80
2022-10-19T01:56:59.297Z,67.28
2022-10-19T01:59:28.187Z,68.05
2022-10-19T02:01:58.764Z,67.23
2022-10-19T02:04:27.019Z,67.52
2022-10-19T02:06:56.103Z,68.92
2022-10-19T02:09:24.048Z,67.62
2022-10-19T02:11:57.557Z,67.33
2022-10-19T02:14:30.074Z,67.89
2022-10-19T02:17:04.186Z,67.85
2022-10-19T02:19:31.904Z,67.77
2022-10-19T02:22:02.854Z,68.47
2022-10-19T02:24:30.717Z,68.00
2022-10-19T02:27:00.513Z,68.26
2022-10-19T02:29:28.823Z,68.33
2022-10-19T02:31:56.286Z,70.16
2022-10-19T02:34:25.376Z,68.72
2022-10-19T02:36:53.140Z,68.67
2022-10-19T02:39:21.430Z,68.85
2022-10-19T02:41:51.343Z,69.55
2022-10-19T02:44:22.677Z,68.69
2022-10-19T02:46:56.056Z,68.99
2022-10-19T02:49:26.456Z,68.60
2022-10-19T02:52:00.142Z,68.37
2022-10-19T02:54:28.936Z,68.22
2022-10-19T02:56:56.845Z,68.46
2022-10-19T02:59:24.734Z,68.62
2022-10-19T03:01:52.408Z,68.34
2022-10-19T03:04:20.059Z,68.79
2022-10-19T03:06:49.021Z,68.25
2022-10-19T03:09:16.705Z,68.23
2022-10-19T03:11:44.285Z,68.43
2022-10-19T03:14:12.156Z,68.62
2022-10-19T03:16:39.721Z,68.64
2022-10-19T03:19:07.576Z,68.50
2022-10-19T03:21:35.640Z,68.95
2022-10-19T03:24:04.729Z,68.55
2022-10-19T03:26:32.369Z,68.87
2022-10-19T03:29:01.389Z,68.58
2022-10-19T03:31:29.088Z,68.96
2022-10-19T03:33:56.685Z,68.74
2022-10-19T03:36:25.744Z,68.95
2022-10-19T03:38:54.027Z,69.05
2022-10-19T03:41:23.453Z,70.12
2022-10-19T03:43:51.312Z,68.51
2022-10-19T03:46:19.910Z,68.89
2022-10-19T03:48:47.945Z,68.68
2022-10-19T03:51:18.513Z,68.81
2022-10-19T03:53:46.786Z,69.06
2022-10-19T03:56:15.268Z,69.95
2022-10-19T03:58:46.157Z,69.32
2022-10-19T04:01:15.882Z,68.74
2022-10-19T04:03:43.932Z,69.26
2022-10-19T04:06:18.192Z,69.16
2022-10-19T04:08:50.027Z,69.51
2022-10-19T04:11:19.129Z,69.21
2022-10-19T04:13:51.018Z,69.49
2022-10-19T04:16:20.609Z,69.33
2022-10-19T04:18:48.781Z,69.26
2022-10-19T04:21:25.537Z,69.21
2022-10-19T04:24:00.409Z,69.48
2022-10-19T04:26:28.323Z,69.02
2022-10-19T04:28:59.515Z,69.38
2022-10-19T04:31:28.168Z,69.50
2022-10-19T04:33:56.268Z,69.51
2022-10-19T04:36:24.506Z,69.60
2022-10-19T04:38:52.498Z,69.41
2022-10-19T04:41:22.046Z,69.79
2022-10-19T04:43:51.175Z,69.85
2022-10-19T04:46:20.993Z,69.97
2022-10-19T04:48:49.331Z,69.35
2022-10-19T04:51:19.070Z,71.06
2022-10-19T04:53:48.177Z,69.79
2022-10-19T04:56:17.972Z,69.77
2022-10-19T04:58:46.088Z,69.85
2022-10-19T05:01:15.566Z,69.87
2022-10-19T05:03:47.495Z,69.49
2022-10-19T05:06:17.713Z,70.05
2022-10-19T05:08:45.297Z,69.88
2022-10-19T05:11:18.033Z,70.02
2022-10-19T05:13:47.712Z,69.99
2022-10-19T05:16:17.813Z,70.47
2022-10-19T05:18:49.838Z,70.17
2022-10-19T05:21:18.201Z,70.30
2022-10-19T05:23:45.996Z,71.23
2022-10-19T05:26:15.397Z,69.80
2022-10-19T05:28:44.623Z,69.72
2022-10-19T05:31:14.666Z,70.18
2022-10-19T05:33:43.585Z,69.98
2022-10-19T05:36:14.610Z,70.21
2022-10-19T05:38:42.649Z,69.62
2022-10-19T05:41:10.569Z,70.80
2022-10-19T05:43:39.313Z,70.63
2022-10-19T05:46:09.391Z,70.46
2022-10-19T05:48:39.327Z,70.15
2022-10-19T05:51:08.585Z,69.97
2022-10-19T05:56:16.663Z,70.42
2022-10-19T05:58:44.407Z,70.39
2022-10-19T06:01:12.184Z,70.82
2022-10-19T06:03:40.284Z,70.49
2022-10-19T06:06:09.794Z,70.30
2022-10-19T06:08:39.549Z,70.29
2022-10-19T06:11:09.026Z,70.24
2022-10-19T06:13:37.027Z,70.92
2022-10-19T06:16:05.315Z,70.84
2022-10-19T06:18:35.428Z,70.49
2022-10-19T06:21:08.992Z,70.16
2022-10-19T06:23:39.058Z,70.43
2022-10-19T06:26:08.669Z,70.78
2022-10-19T06:28:38.106Z,70.73
2022-10-19T06:31:08.510Z,70.57
2022-10-19T06:33:37.356Z,70.29
2022-10-19T06:36:08.476Z,70.73
2022-10-19T06:38:36.271Z,70.24
2022-10-19T06:41:05.759Z,71.02
2022-10-19T06:43:34.043Z,70.15
2022-10-19T06:46:05.357Z,71.32
2022-10-19T06:48:33.082Z,70.46
2022-10-19T06:51:05.905Z,70.50
2022-10-19T06:53:34.374Z,70.84
2022-10-19T06:56:04.143Z,71.17
2022-10-19T06:58:36.100Z,71.32
2022-10-19T07:01:05.115Z,71.06
2022-10-19T07:03:32.782Z,70.97
2022-10-19T07:06:04.813Z,71.57
2022-10-19T07:08:33.501Z,71.89
2022-10-19T07:11:02.825Z,71.26
2022-10-19T07:13:32.311Z,71.80
2022-10-19T07:16:05.513Z,71.86
2022-10-19T07:18:34.991Z,71.51
2022-10-19T07:21:04.504Z,71.84
2022-10-19T07:23:33.662Z,71.71
2022-10-19T07:26:05.747Z,72.08
2022-10-19T07:28:33.950Z,71.83
2022-10-19T07:31:06.204Z,72.00
2022-10-19T07:33:34.059Z,72.30
2022-10-19T07:36:02.492Z,72.99
2022-10-19T07:38:31.573Z,73.33
2022-10-19T07:41:04.385Z,73.29
2022-10-19T07:43:32.137Z,74.31
2022-10-19T07:46:01.107Z,74.60
2022-10-19T07:48:31.542Z,74.83
2022-10-19T07:50:59.600Z,75.45
2022-10-19T07:53:27.196Z,74.97
2022-10-19T07:55:54.786Z,75.54
2022-10-19T07:58:22.523Z,74.50
2022-10-19T08:00:50.167Z,75.38
2022-10-19T08:06:08.361Z,74.97
2022-10-19T08:08:37.134Z,75.38
2022-10-19T08:11:08.725Z,75.98
2022-10-19T08:13:36.821Z,75.72
2022-10-19T08:16:04.543Z,75.91
2022-10-19T08:21:08.623Z,75.92
2022-10-19T08:23:36.239Z,75.93
2022-10-19T08:26:03.914Z,76.10
2022-10-19T08:28:31.518Z,76.18
2022-10-19T08:30:59.143Z,76.43
2022-10-19T08:33:27.542Z,75.95
2022-10-19T08:35:55.185Z,76.30
2022-10-19T08:38:24.145Z,75.86
2022-10-19T08:40:51.936Z,75.72
2022-10-19T08:43:25.257Z,74.94
2022-10-19T08:46:01.816Z,74.79
2022-10-19T08:48:32.912Z,74.01
2022-10-19T08:51:02.717Z,73.69
2022-10-19T08:53:41.206Z,72.89
2022-10-19T08:56:38.907Z,72.15
2022-10-19T08:59:14.486Z,71.68
2022-10-19T09:01:48.209Z,71.15
2022-10-19T09:04:25.187Z,71.10
2022-10-19T09:07:08.181Z,70.71
2022-10-19T09:09:43.729Z,70.40
2022-10-19T09:12:18.756Z,70.16
2022-10-19T09:14:57.226Z,69.74
2022-10-19T09:17:25.259Z,69.71
2022-10-19T09:30:21.071Z,67.79
2022-10-19T09:32:51.033Z,67.63
2022-10-19T09:35:27.491Z,67.22
2022-10-19T09:37:56.715Z,66.80
2022-10-19T09:40:26.895Z,66.48
2022-10-19T09:42:58.499Z,66.14
2022-10-19T09:45:35.267Z,65.59
2022-10-19T09:48:12.777Z,64.89
2022-10-19T09:50:44.215Z,64.41
2022-10-19T09:53:20.432Z,63.83
2022-10-19T09:55:52.260Z,63.10
2022-10-19T09:58:21.700Z,62.68
2022-10-19T10:00:51.528Z,62.34
2022-10-19T10:03:28.940Z,60.33
2022-10-19T10:05:58.714Z,61.89
2022-10-19T10:08:28.931Z,61.57
2022-10-19T10:11:06.985Z,61.34
2022-10-19T10:13:40.221Z,60.79
2022-10-19T10:16:10.761Z,60.41
2022-10-19T10:18:50.982Z,60.17
2022-10-19T10:21:25.674Z,59.61
2022-10-19T10:24:03.607Z,58.47
2022-10-19T10:26:31.356Z,58.63
2022-10-19T10:29:01.555Z,54.97
2022-10-19T10:31:31.050Z,58.30
2022-10-19T10:34:12.208Z,57.89
2022-10-19T10:36:52.877Z,57.52
2022-10-19T10:39:20.535Z,57.58
2022-10-19T10:41:50.041Z,57.39
2022-10-19T10:44:23.220Z,56.91
2022-10-19T10:46:56.470Z,56.21
2022-10-19T10:49:27.670Z,56.33
2022-10-19T10:51:58.000Z,55.75
2022-10-19T10:54:27.728Z,55.28
2022-10-19T10:57:13.928Z,52.17
2022-10-19T10:59:50.395Z,54.23
2022-10-19T11:02:36.739Z,52.74
2022-10-19T11:05:08.499Z,54.14
2022-10-19T11:07:37.824Z,53.49
2022-10-19T11:10:14.388Z,52.91
2022-10-19T11:12:48.688Z,52.53
2022-10-19T11:15:23.794Z,51.93
2022-10-19T11:18:02.647Z,51.57
2022-10-19T11:20:33.383Z,51.59
2022-10-19T11:23:09.594Z,50.21
2022-10-19T11:25:49.334Z,49.50
2022-10-19T11:28:30.832Z,48.36
2022-10-19T11:31:07.525Z,47.62
2022-10-19T11:33:48.842Z,45.90
2022-10-19T11:36:31.302Z,46.04
2022-10-19T11:39:13.450Z,45.32
2022-10-19T11:41:50.334Z,43.73
2022-10-19T11:44:30.384Z,43.47
2022-10-19T11:47:17.739Z,41.85
2022-10-19T11:49:56.202Z,43.01
2022-10-19T11:52:32.649Z,43.04
2022-10-19T11:55:14.919Z,42.41
2022-10-19T11:57:48.018Z,42.42
2022-10-19T12:00:39.337Z,41.73
2022-10-19T12:03:34.620Z,39.60
2022-10-19T12:06:11.806Z,40.92
2022-10-19T12:08:55.395Z,39.82
2022-10-19T12:11:36.533Z,39.58
2022-10-19T12:14:07.078Z,40.20
2022-10-19T12:16:40.928Z,39.61
2022-10-19T12:19:16.985Z,39.15
2022-10-19T12:21:46.726Z,39.30
2022-10-19T12:24:18.618Z,39.16
2022-10-19T12:26:48.045Z,39.27
2022-10-19T12:29:18.786Z,38.79
2022-10-19T12:31:48.081Z,39.36
2022-10-19T12:34:28.669Z,38.23
2022-10-19T12:36:59.917Z,38.95
2022-10-19T12:39:35.937Z,38.11
2022-10-19T12:42:13.658Z,37.86
2022-10-19T12:45:14.497Z,35.31
2022-10-19T12:47:42.003Z,33.56
2022-10-19T12:50:10.902Z,34.25
2022-10-19T12:52:44.360Z,37.91
2022-10-19T12:55:34.597Z,36.00
2022-10-19T12:58:05.854Z,37.20
2022-10-19T13:00:35.318Z,36.81
2022-10-19T13:03:07.066Z,36.65
2022-10-19T13:05:36.981Z,36.54
2022-10-19T13:08:10.601Z,35.89
2022-10-19T13:10:41.440Z,36.02
2022-10-19T13:13:52.950Z,33.12
2022-10-19T13:16:54.254Z,33.06
2022-10-19T13:19:23.474Z,35.91
2022-10-19T13:21:55.239Z,35.33
2022-10-19T13:24:30.771Z,35.22
2022-10-19T13:27:28.009Z,33.52
2022-10-19T13:29:56.307Z,36.28
2022-10-19T13:32:44.236Z,34.55
2022-10-19T13:35:24.757Z,35.63
2022-10-19T13:38:12.846Z,32.85
2022-10-19T13:40:57.123Z,37.87
2022-10-19T13:43:27.093Z,37.70
2022-10-19T13:45:56.278Z,38.12
2022-10-19T13:48:32.721Z,37.30
2022-10-19T13:51:11.920Z,37.66
2022-10-19T13:53:49.877Z,37.72
2022-10-19T13:56:39.979Z,35.37
2022-10-19T13:59:28.694Z,37.71
2022-10-19T14:02:31.713Z,36.82
2022-10-19T14:05:19.554Z,37.20
2022-10-19T14:08:02.098Z,38.40
2022-10-19T14:10:33.022Z,39.31
2022-10-19T14:13:02.972Z,39.49
2022-10-19T14:15:33.338Z,39.43
2022-10-19T14:18:03.843Z,39.72
2022-10-19T14:20:35.377Z,40.01
2022-10-19T14:23:21.324Z,38.41
2022-10-19T14:25:55.819Z,39.49
2022-10-19T14:28:24.484Z,39.96
2022-10-19T14:31:00.377Z,39.36
2022-10-19T14:33:29.364Z,40.47
2022-10-19T14:35:57.687Z,41.06
2022-10-19T14:38:32.669Z,40.59
2022-10-19T14:41:02.267Z,41.06
2022-10-19T14:43:31.163Z,41.10
2022-10-19T14:46:13.692Z,39.24
2022-10-19T14:48:45.276Z,41.21
2022-10-19T14:51:23.534Z,40.99
2022-10-19T14:53:55.135Z,41.72
2022-10-19T14:56:28.555Z,42.05
2022-10-19T14:59:00.221Z,42.38
2022-10-19T15:01:28.154Z,42.81
2022-10-19T15:03:56.476Z,42.89
2022-10-19T15:06:27.942Z,42.84
2022-10-19T15:08:58.463Z,43.13
2022-10-19T15:11:31.316Z,42.92
2022-10-19T15:14:04.792Z,43.01
2022-10-19T15:16:52.893Z,41.63
2022-10-19T15:19:27.259Z,42.66
2022-10-19T15:22:13.892Z,41.62
2022-10-19T15:24:55.534Z,42.71
2022-10-19T15:27:32.032Z,42.35
2022-10-19T15:30:01.614Z,43.75
2022-10-19T15:32:33.485Z,44.20
2022-10-19T15:35:01.484Z,44.92
2022-10-19T15:37:29.244Z,45.18
2022-10-19T15:39:57.301Z,45.76
2022-10-19T15:42:37.293Z,45.45
2022-10-19T15:45:26.201Z,46.43
2022-10-19T15:48:18.425Z,46.00
2022-10-19T15:50:48.469Z,46.74
2022-10-19T15:53:16.485Z,47.27
2022-10-19T15:55:44.147Z,47.44
2022-10-19T15:58:14.409Z,47.91
2022-10-19T16:00:42.718Z,47.92
2022-10-19T16:03:10.323Z,48.26
2022-10-19T16:05:38.133Z,47.61
2022-10-19T16:08:10.106Z,48.40
2022-10-19T16:10:40.002Z,48.56
2022-10-19T16:13:07.440Z,48.02
2022-10-19T16:15:36.377Z,48.65
2022-10-19T16:18:04.046Z,48.97
2022-10-19T16:20:31.683Z,48.76
2022-10-19T16:22:59.349Z,49.41
2022-10-19T16:25:26.816Z,49.04
2022-10-19T16:27:54.593Z,49.49
2022-10-19T16:30:22.277Z,49.43
2022-10-19T16:32:51.253Z,49.67
2022-10-19T16:35:18.866Z,50.12
2022-10-19T16:37:46.359Z,49.93
2022-10-19T16:40:14.013Z,50.61
2022-10-19T16:42:41.491Z,50.75
2022-10-19T16:45:10.488Z,51.11
2022-10-19T16:47:38.169Z,50.96
2022-10-19T16:50:07.389Z,51.08
2022-10-19T16:52:35.386Z,51.29
2022-10-19T16:55:03.274Z,51.25
2022-10-19T16:57:30.973Z,51.31
2022-10-19T16:59:58.442Z,51.42
2022-10-19T17:02:26.168Z,51.52
2022-10-19T17:04:53.896Z,51.76
2022-10-19T17:07:22.833Z,51.76
2022-10-19T17:09:54.681Z,51.91
2022-10-19T17:12:22.691Z,52.37
2022-10-19T17:14:51.242Z,52.30
2022-10-19T17:17:18.922Z,52.55
2022-10-19T17:19:46.764Z,52.75
2022-10-19T17:22:14.385Z,52.83
2022-10-19T17:24:46.188Z,52.78
2022-10-19T17:27:13.775Z,53.19
2022-10-19T17:29:41.456Z,53.45
2022-10-19T17:32:09.120Z,53.64
2022-10-19T17:34:36.748Z,53.95
2022-10-19T17:37:04.421Z,54.11
2022-10-19T17:39:32.649Z,54.05
2022-10-19T17:42:03.254Z,55.05
2022-10-19T17:44:31.754Z,54.38
2022-10-19T17:47:00.708Z,54.47
2022-10-19T17:49:29.689Z,54.59
2022-10-19T17:51:57.349Z,54.77
2022-10-19T17:54:25.050Z,55.00
2022-10-19T17:56:52.701Z,55.23
2022-10-19T17:59:30.364Z,55.40
2022-10-19T18:02:02.694Z,55.50
2022-10-19T18:04:30.330Z,55.60
2022-10-19T18:06:58.046Z,55.57
2022-10-19T18:09:25.676Z,55.85
2022-10-19T18:11:53.293Z,56.35
2022-10-19T18:14:23.614Z,56.53
2022-10-19T18:16:52.051Z,56.87
2022-10-19T18:19:19.826Z,57.07
2022-10-19T18:21:49.122Z,57.07
2022-10-19T18:24:20.112Z,57.06
2022-10-19T18:26:48.871Z,56.98
2022-10-19T18:29:19.593Z,57.22
2022-10-19T18:31:51.645Z,57.33
2022-10-19T18:34:22.627Z,57.36
2022-10-19T18:36:50.485Z,57.54
2022-10-19T18:39:18.257Z,57.44
2022-10-19T18:41:46.117Z,57.91
2022-10-19T18:44:14.224Z,59.27
2022-10-19T18:46:42.145Z,58.20
2022-10-19T18:49:12.697Z,60.18
2022-10-19T18:51:40.497Z,58.19
2022-10-19T18:54:08.162Z,58.50
2022-10-19T18:56:36.488Z,58.43
2022-10-19T18:59:04.851Z,58.69
2022-10-19T19:01:32.541Z,58.61
2022-10-19T19:04:07.527Z,59.12
2022-10-19T19:06:38.188Z,59.18
2022-10-19T19:09:08.870Z,59.40
2022-10-19T19:11:38.438Z,59.36
2022-10-19T19:14:07.785Z,59.40
2022-10-19T19:16:37.196Z,59.32
2022-10-19T19:19:05.671Z,59.34
2022-10-19T19:21:34.992Z,59.66
2022-10-19T19:24:06.478Z,59.98
2022-10-19T19:26:36.172Z,60.12
2022-10-19T19:29:04.432Z,60.45
2022-10-19T19:31:32.500Z,60.36
2022-10-19T19:34:01.115Z,60.68
2022-10-19T19:36:29.805Z,60.43
2022-10-19T19:38:59.028Z,60.41
2022-10-19T19:41:28.823Z,60.66
2022-10-19T19:43:57.515Z,60.68
2022-10-19T19:46:25.162Z,60.87
2022-10-19T19:48:59.765Z,61.78
2022-10-19T19:51:28.104Z,61.53
2022-10-19T19:53:55.792Z,61.68
2022-10-19T19:56:24.382Z,61.55
2022-10-19T19:58:57.421Z,61.95
2022-10-19T20:01:25.259Z,61.63
2022-10-19T20:03:53.291Z,61.90
2022-10-19T20:06:23.663Z,62.14
2022-10-19T20:08:53.679Z,62.11
2022-10-19T20:11:21.947Z,62.16
2022-10-19T20:13:49.627Z,62.27
2022-10-19T20:16:28.166Z,62.12
2022-10-19T20:19:02.955Z,62.42
2022-10-19T20:21:31.786Z,62.60
2022-10-19T20:23:59.455Z,62.37
2022-10-19T20:26:28.227Z,62.52
2022-10-19T20:28:55.825Z,62.88
2022-10-19T20:31:25.657Z,62.88
2022-10-19T20:33:53.421Z,62.95
2022-10-19T20:36:23.223Z,63.18
2022-10-19T20:38:53.637Z,63.02
2022-10-19T20:41:23.862Z,62.98
2022-10-19T20:43:51.732Z,63.46
2022-10-19T20:46:22.268Z,63.14
2022-10-19T20:48:52.178Z,63.37
2022-10-19T20:51:23.048Z,63.76
2022-10-19T20:53:52.649Z,63.69
2022-10-19T20:56:23.149Z,63.52
2022-10-19T20:58:55.988Z,64.00
2022-10-19T21:01:24.223Z,63.90
2022-10-19T21:03:54.797Z,64.10
2022-10-19T21:06:24.442Z,63.78
2022-10-19T21:08:52.771Z,64.08
2022-10-19T21:11:23.149Z,64.13
2022-10-19T21:13:54.446Z,64.14
2022-10-19T21:16:23.399Z,64.13
2022-10-19T21:18:52.791Z,64.13
2022-10-19T21:21:22.693Z,64.32
2022-10-19T21:23:54.457Z,64.49
2022-10-19T21:26:22.347Z,64.53
2022-10-19T21:28:53.047Z,64.81
2022-10-19T21:31:21.534Z,64.56
2022-10-19T21:33:49.466Z,64.75
2022-10-19T21:36:19.612Z,64.68
2022-10-19T21:38:47.662Z,64.80
2022-10-19T21:41:16.161Z,67.77
2022-10-19T21:43:43.992Z,68.17
2022-10-19T21:46:14.043Z,64.74
2022-10-19T21:48:42.315Z,64.79
2022-10-19T21:51:21.826Z,65.09
2022-10-19T21:53:49.615Z,65.08
2022-10-19T21:56:17.737Z,64.79
2022-10-19T21:58:46.465Z,65.23
2022-10-19T22:01:14.505Z,65.36
2022-10-19T22:03:42.071Z,68.07
2022-10-19T22:06:09.727Z,65.20
2022-10-19T22:08:39.077Z,65.37
2022-10-19T22:11:07.624Z,65.39
2022-10-19T22:13:35.581Z,65.70
2022-10-19T22:16:07.346Z,65.93
2022-10-19T22:18:34.996Z,65.84
2022-10-19T22:21:04.655Z,65.79
2022-10-19T22:23:32.447Z,65.74
2022-10-19T22:26:01.685Z,65.96
2022-10-19T22:28:29.706Z,66.07
2022-10-19T22:30:57.727Z,69.10
2022-10-19T22:33:26.413Z,66.18
2022-10-19T22:35:55.137Z,66.38
2022-10-19T22:38:23.418Z,65.87
2022-10-19T22:41:46.219Z,67.25
2022-10-19T22:44:15.218Z,66.57
2022-10-19T22:46:42.928Z,66.14
2022-10-19T22:49:10.716Z,66.22
2022-10-19T22:51:38.387Z,66.50
2022-10-19T22:54:06.828Z,66.58
2022-10-19T22:56:34.540Z,66.49
2022-10-19T22:59:03.476Z,66.35
2022-10-19T23:01:32.538Z,66.53
2022-10-19T23:04:00.406Z,66.52
2022-10-19T23:06:28.200Z,66.52
2022-10-19T23:08:55.866Z,66.79
2022-10-19T23:11:25.713Z,66.45
2022-10-19T23:13:53.390Z,67.08
2022-10-19T23:16:21.076Z,66.89
2022-10-19T23:18:50.147Z,67.15
2022-10-19T23:21:17.813Z,66.84
2022-10-19T23:23:45.480Z,67.52
2022-10-19T23:26:15.090Z,67.06
2022-10-19T23:28:44.761Z,67.19
2022-10-19T23:31:14.801Z,67.65
2022-10-19T23:33:42.908Z,67.40
2022-10-19T23:36:14.250Z,71.01
2022-10-19T23:38:42.013Z,67.74
2022-10-19T23:41:09.724Z,67.73
2022-10-19T23:43:38.363Z,67.90
2022-10-19T23:46:06.223Z,68.05
2022-10-19T23:48:34.780Z,68.08
2022-10-19T23:51:04.704Z,68.25
2022-10-19T23:53:38.419Z,67.92
2022-10-19T23:56:10.491Z,68.34
2022-10-19T23:58:38.122Z,67.99
